Time;durP1;ratioP1;P1;durP2;ratioP2;P2;SDS_P1;SDS_P2;PMS_P1;PMS_P2;Temp;Humidity;BMP_temperature;BMP_pressure;BME280_temperature;BME280_humidity;BME280_pressure;Samples;Min_cycle;Max_cycle;Signal;HPM_P1;HPM_P2
2023/05/11 00:03:21;;;;;;;9.88;3.78;;;20.20;58.40;;;;;;8395770;28;20033;-47
2023/05/11 00:07:22;;;;;;;7.75;3.88;;;20.20;58.40;;;;;;8395832;28;20555;-49
2023/05/11 00:11:23;;;;;;;6.75;3.00;;;20.20;58.40;;;;;;8377633;28;20036;-47
2023/05/11 00:15:24;;;;;;;6.15;3.03;;;20.20;58.30;;;;;;8377698;28;20056;-47
2023/05/11 00:19:24;;;;;;;6.03;3.33;;;20.20;58.40;;;;;;8395507;28;20536;-48
2023/05/11 00:23:25;;;;;;;7.07;3.05;;;20.20;58.40;;;;;;8395725;28;20512;-47
2023/05/11 00:27:25;;;;;;;6.22;3.28;;;20.20;58.40;;;;;;8395074;28;20029;-49
2023/05/11 00:31:26;;;;;;;6.97;3.45;;;20.20;58.30;;;;;;8394892;28;20035;-48
2023/05/11 00:35:27;;;;;;;6.03;3.27;;;20.20;58.30;;;;;;8377260;28;20063;-46
2023/05/11 00:39:27;;;;;;;4.88;2.90;;;20.20;58.30;;;;;;8376725;28;20286;-48
2023/05/11 00:43:28;;;;;;;5.18;2.67;;;20.20;58.30;;;;;;8394489;28;20040;-46
2023/05/11 00:47:29;;;;;;;6.00;2.75;;;20.20;58.30;;;;;;8394480;28;20131;-47
2023/05/11 00:51:31;;;;;;;5.90;3.25;;;20.20;58.30;;;;;;8394382;28;20028;-48
2023/05/11 00:55:32;;;;;;;5.53;2.80;;;20.20;58.30;;;;;;8376976;28;20032;-48
2023/05/11 00:59:32;;;;;;;8.30;3.50;;;20.20;58.30;;;;;;8394157;28;20036;-47
2023/05/11 01:03:34;;;;;;;6.40;2.90;;;20.20;58.30;;;;;;8394113;28;20282;-46
2023/05/11 01:07:42;;;;;;;5.82;2.88;;;20.20;58.30;;;;;;8393969;28;20043;-49
2023/05/11 01:11:54;;;;;;;4.50;2.40;;;20.20;58.20;;;;;;8393851;28;20029;-48
2023/05/11 01:15:55;;;;;;;5.20;2.53;;;20.20;58.20;;;;;;8393294;28;20029;-50
2023/05/11 01:20:03;;;;;;;4.05;2.58;;;20.20;58.20;;;;;;8393635;28;20028;-47
2023/05/11 01:24:30;;;;;;;4.70;2.55;;;20.20;58.20;;;;;;8394063;28;20154;-47
2023/05/11 01:28:59;;;;;;;4.22;2.30;;;20.20;58.10;;;;;;8393482;28;20052;-47
2023/05/11 01:33:07;;;;;;;4.13;2.40;;;20.20;58.10;;;;;;8393499;28;20024;-48
2023/05/11 01:37:15;;;;;;;5.72;2.40;;;20.20;58.20;;;;;;8393215;28;20025;-49
2023/05/11 01:41:20;;;;;;;4.05;2.42;;;20.20;58.10;;;;;;8393348;28;20035;-48
2023/05/11 01:45:21;;;;;;;4.65;2.40;;;20.10;58.10;;;;;;8393240;28;20028;-48
2023/05/11 01:49:23;;;;;;;4.70;2.20;;;20.20;58.20;;;;;;8392967;28;20049;-47
2023/05/11 01:53:25;;;;;;;;;;;20.20;58.10;;;;;;8393807;28;20089;-48
2023/05/11 01:57:27;;;;;;;3.33;1.88;;;20.20;58.10;;;;;;8392950;28;20377;-49
2023/05/11 02:01:29;;;;;;;4.70;2.08;;;20.20;58.10;;;;;;8393299;28;20047;-47
2023/05/11 02:05:32;;;;;;;3.17;1.83;;;20.20;58.10;;;;;;8392813;28;20033;-47
2023/05/11 02:09:34;;;;;;;3.83;2.17;;;20.20;58.10;;;;;;8375049;28;20032;-47
2023/05/11 02:13:37;;;;;;;3.83;2.15;;;20.10;58.00;;;;;;8392711;28;20112;-50
2023/05/11 02:17:40;;;;;;;3.95;1.90;;;20.20;58.10;;;;;;8392582;28;20485;-49
2023/05/11 02:21:42;;;;;;;4.07;2.20;;;20.20;58.10;;;;;;8392552;28;20562;-49
2023/05/11 02:25:43;;;;;;;4.35;1.90;;;20.10;58.00;;;;;;8394422;28;20082;-48
2023/05/11 02:29:45;;;;;;;3.13;1.70;;;20.20;58.10;;;;;;8398761;28;20352;-48
2023/05/11 02:33:49;;;;;;;3.75;2.28;;;20.20;58.10;;;;;;8398856;28;20646;-47
2023/05/11 02:37:52;;;;;;;2.95;1.77;;;20.20;58.00;;;;;;8398931;28;20033;-47
2023/05/11 02:41:58;;;;;;;6.38;3.15;;;20.20;58.00;;;;;;8398415;28;20032;-48
2023/05/11 02:46:05;;;;;;;2.55;1.70;;;20.10;58.00;;;;;;8380753;28;20032;-48
2023/05/11 02:50:07;;;;;;;3.63;1.90;;;20.10;58.00;;;;;;8380119;28;20250;-47
2023/05/11 02:54:09;;;;;;;4.55;2.22;;;20.10;57.90;;;;;;8398220;28;20017;-47
2023/05/11 02:58:10;;;;;;;3.85;2.38;;;20.10;57.90;;;;;;8380530;28;20024;-46
2023/05/11 03:02:12;;;;;;;3.40;1.67;;;20.10;57.90;;;;;;8397956;28;20119;-46
2023/05/11 03:06:12;;;;;;;2.45;1.70;;;20.10;58.40;;;;;;8397743;28;20033;-48
2023/05/11 03:10:13;;;;;;;4.47;2.03;;;20.10;57.90;;;;;;8398271;28;20128;-47
2023/05/11 03:14:14;;;;;;;1.85;1.42;;;20.20;57.90;;;;;;8397462;28;20024;-48
2023/05/11 03:18:16;;;;;;;3.83;1.63;;;20.10;57.80;;;;;;8397457;28;20039;-47
2023/05/11 03:22:17;;;;;;;3.00;1.70;;;20.10;57.90;;;;;;8397705;28;20108;-50
2023/05/11 03:26:20;;;;;;;3.03;1.73;;;20.10;57.90;;;;;;8397061;28;20486;-48
2023/05/11 03:30:22;;;;;;;3.60;1.90;;;20.10;57.90;;;;;;8396974;28;20032;-48
2023/05/11 03:34:22;;;;;;;3.22;2.03;;;20.10;57.90;;;;;;8397353;28;20024;-48
2023/05/11 03:38:26;;;;;;;3.00;1.83;;;20.10;57.90;;;;;;8396244;28;20039;-47
2023/05/11 03:42:29;;;;;;;2.75;1.63;;;20.10;57.90;;;;;;8378725;28;20310;-48
2023/05/11 03:46:34;;;;;;;2.60;1.83;;;20.10;57.90;;;;;;8396792;28;20145;-49
2023/05/11 03:50:36;;;;;;;2.88;1.30;;;20.10;57.90;;;;;;8396247;28;20080;-48
2023/05/11 03:54:37;;;;;;;3.33;2.17;;;20.10;57.90;;;;;;8396761;28;20020;-48
2023/05/11 03:58:39;;;;;;;2.90;1.83;;;20.10;57.90;;;;;;8396149;28;20055;-47
2023/05/11 04:02:40;;;;;;;2.95;1.55;;;20.10;57.90;;;;;;8396378;28;20115;-48
2023/05/11 04:06:40;;;;;;;3.33;1.60;;;20.10;57.90;;;;;;8396062;28;20494;-50
2023/05/11 04:10:41;;;;;;;3.13;1.63;;;20.10;58.00;;;;;;8395740;28;20032;-48
2023/05/11 04:14:42;;;;;;;2.13;1.40;;;20.20;57.90;;;;;;8395909;28;20032;-48
2023/05/11 04:18:42;;;;;;;2.10;1.30;;;20.20;57.70;;;;;;8395709;28;20041;-48
2023/05/11 04:22:43;;;;;;;3.63;1.58;;;20.20;57.60;;;;;;8396129;28;20037;-50
2023/05/11 04:26:43;;;;;;;2.10;1.40;;;20.20;57.50;;;;;;8395388;28;20469;-47
2023/05/11 04:30:44;;;;;;;2.17;1.40;;;20.20;57.40;;;;;;8394894;28;20032;-49
2023/05/11 04:34:45;;;;;;;3.33;1.60;;;20.30;57.50;;;;;;8377171;28;20033;-48
2023/05/11 04:38:45;;;;;;;2.63;1.38;;;20.20;57.40;;;;;;8377298;28;20039;-48
2023/05/11 04:42:46;;;;;;;2.50;1.60;;;20.30;57.40;;;;;;8394678;28;20647;-48
2023/05/11 04:46:47;;;;;;;2.70;1.40;;;20.30;57.50;;;;;;8394999;28;20020;-50
2023/05/11 04:50:47;;;;;;;1.83;1.20;;;20.20;57.40;;;;;;8369601;23;20123;-82
2023/05/11 04:54:48;;;;;;;2.38;1.75;;;20.20;57.40;;;;;;8328699;28;20111;-81
2023/05/11 04:58:49;;;;;;;1.70;1.20;;;20.20;57.40;;;;;;8327452;28;20029;-82
2023/05/11 05:02:50;;;;;;;2.65;1.45;;;20.30;57.40;;;;;;8343432;28;20025;-82
2023/05/11 05:06:51;;;;;;;2.80;1.50;;;20.20;57.40;;;;;;8343308;28;20036;-82
2023/05/11 05:10:52;;;;;;;2.38;1.38;;;20.20;57.30;;;;;;8310333;28;20033;-81
2023/05/11 05:14:52;;;;;;;2.33;1.30;;;20.20;57.30;;;;;;8361036;28;20508;-81
2023/05/11 05:18:53;;;;;;;2.45;1.33;;;20.20;57.30;;;;;;8342899;28;20036;-81
2023/05/11 05:22:54;;;;;;;2.35;1.30;;;20.20;57.30;;;;;;8310519;28;20033;-82
2023/05/11 05:26:55;;;;;;;2.17;1.50;;;20.20;57.40;;;;;;8326363;28;20036;-81
2023/05/11 05:30:55;;;;;;;2.35;1.42;;;20.20;57.30;;;;;;8326146;28;20037;-82
2023/05/11 05:34:56;;;;;;;3.28;1.70;;;20.20;57.30;;;;;;8326158;28;20029;-81
2023/05/11 05:38:57;;;;;;;2.30;1.52;;;20.20;57.30;;;;;;8360032;28;20047;-81
2023/05/11 05:42:57;;;;;;;1.42;1.15;;;20.20;57.30;;;;;;8360287;28;20497;-81
2023/05/11 05:46:58;;;;;;;3.78;1.35;;;20.20;57.30;;;;;;8342582;28;20055;-81
2023/05/11 05:50:59;;;;;;;2.53;1.23;;;20.20;57.30;;;;;;8325658;28;20077;-81
2023/05/11 05:55:00;;;;;;;2.15;1.30;;;20.20;57.30;;;;;;8293490;28;20030;-82
2023/05/11 05:59:00;;;;;;;2.65;1.10;;;20.20;57.30;;;;;;8276500;28;20545;-81
2023/05/11 06:03:01;;;;;;;1.52;1.40;;;20.20;57.50;;;;;;8260262;28;20103;-81
2023/05/11 06:07:02;;;;;;;2.08;1.45;;;20.20;57.30;;;;;;8293122;28;20045;-81
2023/05/11 06:11:03;;;;;;;1.67;1.33;;;20.30;57.30;;;;;;8260546;28;20088;-81
2023/05/11 06:15:04;;;;;;;1.23;0.90;;;20.30;57.10;;;;;;8276784;28;20087;-81
2023/05/11 06:19:04;;;;;;;2.75;1.50;;;20.30;57.10;;;;;;8276730;28;20113;-81
2023/05/11 06:23:05;;;;;;;1.38;1.00;;;20.30;57.00;;;;;;8270970;28;20038;-81
2023/05/11 06:27:06;;;;;;;2.35;1.40;;;20.30;57.00;;;;;;8326115;28;20515;-81
2023/05/11 06:31:06;;;;;;;2.35;1.05;;;20.30;57.00;;;;;;8309091;28;20361;-81
2023/05/11 06:35:07;;;;;;;1.60;1.00;;;20.30;57.00;;;;;;8326228;28;20430;-81
2023/05/11 06:39:08;;;;;;;2.78;1.10;;;20.30;57.00;;;;;;8292802;28;20029;-81
2023/05/11 06:43:09;;;;;;;1.65;1.30;;;20.30;57.00;;;;;;8276078;28;20149;-81
2023/05/11 06:47:10;;;;;;;1.10;1.00;;;20.20;57.00;;;;;;8292444;28;20061;-81
2023/05/11 06:51:11;;;;;;;1.45;0.93;;;20.20;57.00;;;;;;8308685;28;20042;-82
2023/05/11 06:55:15;;;;;;;2.13;1.30;;;20.30;57.00;;;;;;8304435;28;20472;-81
2023/05/11 06:59:15;;;;;;;2.63;1.23;;;20.30;57.10;;;;;;8275588;28;20044;-81
2023/05/11 07:03:16;;;;;;;2.35;1.10;;;20.30;57.10;;;;;;8275989;28;20041;-81
2023/05/11 07:07:17;;;;;;;1.73;1.05;;;20.20;57.00;;;;;;8307529;28;20040;-81
2023/05/11 07:11:18;;;;;;;1.23;1.02;;;20.30;57.60;;;;;;8324953;28;20436;-82
2023/05/11 07:15:18;;;;;;;2.05;1.27;;;20.30;57.10;;;;;;8296791;28;20134;-81
2023/05/11 07:19:19;;;;;;;1.70;1.20;;;20.20;57.00;;;;;;8331218;28;20037;-83
2023/05/11 07:23:19;;;;;;;1.30;1.13;;;20.30;57.00;;;;;;8330241;28;20116;-83
2023/05/11 07:27:20;;;;;;;2.00;1.20;;;20.20;57.00;;;;;;8313857;28;20395;-84
2023/05/11 07:31:21;;;;;;;1.50;1.25;;;20.20;57.00;;;;;;8330373;28;20026;-84
2023/05/11 07:35:22;;;;;;;2.38;1.48;;;20.20;57.00;;;;;;8330178;28;20495;-84
2023/05/11 07:39:22;;;;;;;1.60;1.02;;;20.20;57.00;;;;;;8297151;28;20041;-83
2023/05/11 07:43:23;;;;;;;3.20;1.17;;;20.20;57.00;;;;;;8298531;28;20522;-82
2023/05/11 07:47:24;;;;;;;1.35;0.93;;;20.20;57.00;;;;;;8344207;28;20034;-83
2023/05/11 07:51:24;;;;;;;1.25;1.00;;;20.20;57.00;;;;;;8372549;28;20159;-83
2023/05/11 07:55:25;;;;;;;1.08;0.80;;;20.20;57.00;;;;;;8356341;28;20045;-83
2023/05/11 07:59:26;;;;;;;1.63;1.05;;;20.20;57.10;;;;;;8304312;28;20050;-83
2023/05/11 08:03:26;;;;;;;1.83;1.03;;;20.20;57.20;;;;;;8297220;28;20030;-83
2023/05/11 08:07:27;;;;;;;1.10;0.80;;;20.30;57.10;;;;;;8296304;28;20646;-83
2023/05/11 08:11:28;;;;;;;1.40;1.10;;;20.30;57.00;;;;;;8279785;28;20483;-83
2023/05/11 08:15:28;;;;;;;1.08;0.95;;;20.30;56.90;;;;;;8279581;28;20069;-83
2023/05/11 08:19:29;;;;;;;1.50;0.90;;;20.30;56.80;;;;;;8312302;28;20088;-83
2023/05/11 08:23:30;;;;;;;1.33;1.13;;;20.30;56.80;;;;;;8310383;28;20033;-83
2023/05/11 08:27:31;;;;;;;0.70;0.70;;;20.30;56.70;;;;;;8329549;28;20279;-83
2023/05/11 08:31:31;;;;;;;1.75;1.10;;;20.30;56.70;;;;;;8311511;28;20057;-83
2023/05/11 08:35:32;;;;;;;1.17;1.08;;;20.30;56.70;;;;;;8311479;28;20032;-83
2023/05/11 08:39:33;;;;;;;1.50;1.00;;;20.30;56.70;;;;;;8327870;28;20491;-83
2023/05/11 08:43:35;;;;;;;1.67;1.05;;;20.30;56.70;;;;;;8327441;28;20068;-83
2023/05/11 08:47:36;;;;;;;1.35;0.95;;;20.30;56.70;;;;;;8329183;28;20040;-83
2023/05/11 08:51:36;;;;;;;1.48;1.10;;;20.30;56.70;;;;;;8310692;28;20077;-83
2023/05/11 08:55:39;;;;;;;1.50;0.95;;;20.30;57.20;;;;;;8311193;28;20034;-83
2023/05/11 08:59:43;;;;;;;0.65;0.65;;;20.30;56.70;;;;;;8278691;28;20033;-83
2023/05/11 09:03:45;;;;;;;0.98;0.80;;;20.30;56.70;;;;;;8295801;28;20034;-83
2023/05/11 09:07:49;;;;;;;1.10;0.98;;;20.30;56.70;;;;;;8293996;28;20476;-83
2023/05/11 09:11:50;;;;;;;1.33;0.90;;;20.30;56.80;;;;;;8295846;28;20037;-83
2023/05/11 09:15:51;;;;;;;1.23;1.08;;;20.30;56.80;;;;;;8277791;28;20479;-83
2023/05/11 09:20:05;;;;;;;1.30;1.05;;;20.20;56.70;;;;;;8277689;28;20435;-83
2023/05/11 09:24:06;;;;;;;1.25;1.00;;;20.20;56.70;;;;;;8313307;28;20040;-83
2023/05/11 09:28:11;;;;;;;1.67;1.10;;;20.20;56.70;;;;;;8326307;28;20121;-83
2023/05/11 09:32:11;;;;;;;1.52;0.90;;;20.20;57.20;;;;;;8309741;28;20033;-83
2023/05/11 09:36:22;;;;;;;1.27;0.90;;;20.20;56.70;;;;;;8325855;28;20057;-83
2023/05/11 09:40:24;;;;;;;1.65;1.13;;;20.20;56.80;;;;;;8327443;28;20491;-83
2023/05/11 09:44:30;;;;;;;2.30;0.90;;;20.20;56.80;;;;;;8309325;28;20491;-83
2023/05/11 09:48:31;;;;;;;1.80;0.80;;;20.20;56.80;;;;;;8327001;28;20395;-83
2023/05/11 09:52:32;;;;;;;;;;;20.20;56.80;;;;;;8342487;28;20041;-83
2023/05/11 09:56:53;;;;;;;1.17;0.80;;;20.20;56.80;;;;;;8342151;28;19909;-83
2023/05/11 10:00:53;;;;;;;1.10;0.80;;;20.20;57.00;;;;;;8325703;28;20120;-83
2023/05/11 10:04:56;;;;;;;1.13;0.98;;;20.20;56.90;;;;;;8342317;28;20029;-83
2023/05/11 10:09:08;;;;;;;0.80;0.70;;;20.20;57.30;;;;;;8342498;28;20112;-83
2023/05/11 10:13:09;;;;;;;1.42;0.80;;;20.30;56.70;;;;;;8342134;28;20108;-83
2023/05/11 10:17:11;;;;;;;1.52;1.08;;;20.30;56.70;;;;;;8343100;28;20037;-83
2023/05/11 10:21:14;;;;;;;1.17;1.00;;;20.30;56.60;;;;;;8342951;28;20403;-83
2023/05/11 10:25:16;;;;;;;1.10;0.98;;;20.30;56.60;;;;;;8309566;28;20079;-83
2023/05/11 10:29:18;;;;;;;2.00;1.10;;;20.30;56.60;;;;;;8308909;28;20025;-83
2023/05/11 10:33:19;;;;;;;1.00;0.90;;;20.30;56.60;;;;;;8326431;28;20479;-83
2023/05/11 10:37:20;;;;;;;0.65;0.57;;;20.30;56.60;;;;;;8276282;28;20434;-83
2023/05/11 10:41:42;;;;;;;1.02;0.85;;;20.30;56.50;;;;;;8325964;28;20037;-82
2023/05/11 10:45:43;;;;;;;1.63;0.90;;;20.30;56.50;;;;;;8308174;28;20029;-83
2023/05/11 10:49:46;;;;;;;0.90;0.80;;;20.30;56.60;;;;;;8296969;28;20140;-83
2023/05/11 10:54:29;;;;;;;1.42;0.75;;;20.30;56.60;;;;;;8349264;28;20036;-83
2023/05/11 10:58:51;;;;;;;0.98;0.88;;;20.30;56.60;;;;;;8365424;28;20025;-83
2023/05/11 11:02:52;;;;;;;0.70;0.70;;;20.20;56.60;;;;;;8347298;28;20032;-82
2023/05/11 11:07:06;;;;;;;1.08;0.70;;;20.20;56.60;;;;;;8330512;28;20033;-83
2023/05/11 11:11:27;;;;;;;1.15;0.80;;;20.30;56.70;;;;;;8346840;28;20055;-83
2023/05/11 11:15:46;;;;;;;;;;;20.20;56.70;;;;;;8365020;28;20029;-83
2023/05/11 11:19:47;;;;;;;1.20;0.73;;;20.20;56.70;;;;;;8364467;28;20334;-83
2023/05/11 11:23:49;;;;;;;1.98;0.98;;;20.20;56.80;;;;;;8313980;28;20025;-83
2023/05/11 11:27:49;;;;;;;1.05;0.90;;;20.20;56.80;;;;;;8346128;28;20128;-83
2023/05/11 11:31:50;;;;;;;0.70;0.70;;;20.20;56.80;;;;;;8346595;28;20017;-83
2023/05/11 11:35:51;;;;;;;0.90;0.70;;;20.20;56.80;;;;;;8329952;28;20287;-83
2023/05/11 11:39:58;;;;;;;1.75;1.10;;;20.20;56.80;;;;;;8329152;28;20033;-83
2023/05/11 11:43:59;;;;;;;1.05;0.70;;;20.20;56.80;;;;;;8331041;28;20037;-83
2023/05/11 11:48:11;;;;;;;0.95;0.65;;;20.20;56.80;;;;;;8345828;28;20029;-83
2023/05/11 11:52:13;;;;;;;1.15;0.90;;;20.20;56.80;;;;;;8363307;28;20135;-83
2023/05/11 11:56:14;;;;;;;0.63;0.60;;;20.20;56.80;;;;;;8345517;28;20119;-83
2023/05/11 12:00:20;;;;;;;1.07;0.90;;;20.20;56.80;;;;;;8344753;28;20499;-83
2023/05/11 12:04:39;;;;;;;0.70;0.70;;;20.20;56.80;;;;;;8329343;28;20056;-83
2023/05/11 12:08:41;;;;;;;0.63;0.60;;;20.20;56.80;;;;;;8345543;28;20032;-83
2023/05/11 12:12:50;;;;;;;0.85;0.77;;;20.20;56.90;;;;;;8344965;28;20021;-83
2023/05/11 12:17:12;;;;;;;0.80;0.75;;;20.20;57.40;;;;;;8345357;28;20475;-83
2023/05/11 12:21:22;;;;;;;1.05;0.65;;;20.20;56.90;;;;;;8344825;28;20061;-83
2023/05/11 12:25:23;;;;;;;1.35;0.93;;;20.20;57.40;;;;;;8362896;28;20017;-83
2023/05/11 12:29:23;;;;;;;0.90;0.73;;;20.20;56.90;;;;;;8344391;28;20041;-83
2023/05/11 12:33:25;;;;;;;0.90;0.90;;;20.20;56.90;;;;;;8344302;28;20040;-83
2023/05/11 12:37:25;;;;;;;0.80;0.80;;;20.20;56.90;;;;;;8344389;28;20112;-83
2023/05/11 12:41:26;;;;;;;0.90;0.70;;;20.20;56.90;;;;;;8327521;28;20037;-83
2023/05/11 12:45:28;;;;;;;1.23;0.90;;;20.20;57.40;;;;;;8327591;28;20037;-83
2023/05/11 12:49:28;;;;;;;2.35;0.80;;;20.20;56.90;;;;;;8327200;28;20135;-83
2023/05/11 12:53:35;;;;;;;1.25;1.00;;;20.20;57.00;;;;;;8327683;28;20037;-83
2023/05/11 12:57:37;;;;;;;1.50;0.80;;;20.30;56.90;;;;;;8343723;28;20025;-83
2023/05/11 13:01:37;;;;;;;1.42;0.68;;;20.30;56.70;;;;;;8361537;28;20082;-83
2023/05/11 13:05:39;;;;;;;1.00;0.80;;;20.30;56.60;;;;;;8327052;28;20119;-83
2023/05/11 13:09:41;;;;;;;1.08;0.90;;;20.30;56.60;;;;;;8343410;28;20291;-82
2023/05/11 13:13:42;;;;;;;0.98;0.75;;;20.30;56.50;;;;;;8343214;28;20033;-83
2023/05/11 13:17:43;;;;;;;1.40;1.15;;;20.30;56.50;;;;;;8361009;28;20029;-83
2023/05/11 13:21:45;;;;;;;1.10;0.50;;;20.30;56.50;;;;;;8342958;28;20463;-83
2023/05/11 13:25:48;;;;;;;0.80;0.80;;;20.30;56.50;;;;;;8342798;28;20025;-83
2023/05/11 13:29:49;;;;;;;1.52;0.68;;;20.30;56.50;;;;;;8360767;28;20027;-83
2023/05/11 13:33:51;;;;;;;1.10;0.90;;;20.20;56.50;;;;;;8343126;28;20025;-80
2023/05/11 13:37:51;;;;;;;0.80;0.80;;;20.30;56.50;;;;;;8326230;28;20276;-79
2023/05/11 13:41:52;;;;;;;2.33;0.97;;;20.30;56.00;;;;;;8342426;28;20076;-80
2023/05/11 13:45:53;;;;;;;1.20;0.93;;;20.20;54.90;;;;;;8323786;28;20300;-81
2023/05/11 13:49:54;;;;;;;1.83;0.95;;;20.30;54.80;;;;;;8343387;28;20045;-80
2023/05/11 13:53:54;;;;;;;1.45;0.95;;;20.30;54.80;;;;;;8342580;28;20031;-80
2023/05/11 13:57:55;;;;;;;1.55;0.98;;;20.30;54.80;;;;;;8309739;28;20029;-79
2023/05/11 14:01:56;;;;;;;1.73;1.00;;;20.20;54.70;;;;;;8342732;28;20021;-81
2023/05/11 14:05:57;;;;;;;1.58;1.00;;;20.20;54.70;;;;;;8325867;28;20039;-80
2023/05/11 14:09:58;;;;;;;3.65;1.35;;;20.20;54.00;;;;;;8332209;28;20063;-80
2023/05/11 14:13:59;;;;;;;1.73;1.25;;;20.20;53.80;;;;;;8342430;28;20029;-80
2023/05/11 14:18:04;;;;;;;2.75;1.75;;;20.20;53.90;;;;;;8325770;28;20038;-80
2023/05/11 14:22:04;;;;;;;3.38;1.25;;;20.20;54.30;;;;;;8340510;28;20063;-80
2023/05/11 14:26:05;;;;;;;1.52;1.17;;;20.20;53.60;;;;;;8349135;28;20063;-80
2023/05/11 14:30:07;;;;;;;1.60;1.27;;;20.20;53.40;;;;;;8348840;28;20124;-80
2023/05/11 14:34:07;;;;;;;;;;;20.20;53.30;;;;;;8349773;28;20029;-80
2023/05/11 14:38:08;;;;;;;1.43;1.10;;;20.20;53.00;;;;;;8348837;28;19916;-80
2023/05/11 14:42:09;;;;;;;1.98;1.08;;;20.20;52.90;;;;;;8332321;28;20043;-80
2023/05/11 14:46:10;;;;;;;1.25;0.93;;;20.20;52.80;;;;;;8378377;28;20025;-80
2023/05/11 14:50:10;;;;;;;5.35;1.50;;;20.20;52.30;;;;;;8384344;28;20053;-81
2023/05/11 14:54:11;;;;;;;2.03;1.10;;;20.30;52.20;;;;;;8383951;28;20039;-80
2023/05/11 14:58:12;;;;;;;0.80;0.75;;;20.30;51.90;;;;;;8338098;28;20056;-80
2023/05/11 15:02:12;;;;;;;1.45;0.88;;;20.30;52.30;;;;;;8378125;28;20032;-81
2023/05/11 15:06:20;;;;;;;1.30;0.90;;;20.30;51.60;;;;;;8405315;28;20033;-80
2023/05/11 15:10:20;;;;;;;1.27;0.80;;;20.30;51.40;;;;;;8354349;28;20045;-81
2023/05/11 15:14:21;;;;;;;1.10;1.00;;;20.40;51.50;;;;;;8386435;28;20021;-80
2023/05/11 15:18:22;;;;;;;1.23;0.95;;;20.30;51.40;;;;;;8370090;28;20543;-83
2023/05/11 15:22:22;;;;;;;0.93;0.70;;;20.30;50.80;;;;;;8374018;28;20013;-82
2023/05/11 15:26:23;;;;;;;2.88;1.10;;;20.30;51.30;;;;;;8381853;28;20505;-84
2023/05/11 15:30:24;;;;;;;1.20;0.90;;;20.30;50.80;;;;;;8348824;28;20041;-84
2023/05/11 15:34:25;;;;;;;1.70;1.13;;;20.40;51.10;;;;;;8347426;28;20037;-84
2023/05/11 15:38:26;;;;;;;3.63;1.10;;;20.40;51.30;;;;;;8348689;28;20033;-84
2023/05/11 15:42:26;;;;;;;0.93;0.80;;;20.40;51.40;;;;;;8346258;28;20117;-84
2023/05/11 15:46:27;;;;;;;0.80;0.80;;;20.40;51.60;;;;;;8356675;28;20039;-84
2023/05/11 15:50:28;;;;;;;1.53;0.83;;;20.50;51.70;;;;;;8355311;28;20559;-84
2023/05/11 15:54:28;;;;;;;1.38;0.90;;;20.40;51.80;;;;;;8330107;28;20387;-84
2023/05/11 15:58:29;;;;;;;2.03;0.95;;;20.40;52.00;;;;;;8313370;28;20099;-85
2023/05/11 16:02:30;;;;;;;2.47;0.75;;;20.40;52.10;;;;;;8330086;28;20084;-85
2023/05/11 16:06:33;;;;;;;2.27;0.83;;;20.40;52.20;;;;;;8329494;28;20117;-84
2023/05/11 16:10:34;;;;;;;1.75;1.08;;;20.50;52.40;;;;;;8312365;28;20288;-84
2023/05/11 16:14:34;;;;;;;1.73;1.00;;;20.40;52.30;;;;;;8329374;28;20041;-84
2023/05/11 16:18:37;;;;;;;0.85;0.82;;;20.50;53.00;;;;;;8329278;28;20284;-84
2023/05/11 16:22:37;;;;;;;1.80;0.75;;;20.50;52.60;;;;;;8312726;28;20034;-84
2023/05/11 16:26:38;;;;;;;0.85;0.70;;;20.50;52.70;;;;;;8296179;28;20029;-84
2023/05/11 16:30:39;;;;;;;0.68;0.68;;;20.50;52.70;;;;;;8312265;28;20245;-84
2023/05/11 16:34:40;;;;;;;1.08;0.90;;;20.50;52.70;;;;;;8327841;28;20064;-85
2023/05/11 16:38:41;;;;;;;1.15;0.85;;;20.60;52.80;;;;;;8307904;28;20038;-84
2023/05/11 16:42:42;;;;;;;0.80;0.80;;;20.60;52.50;;;;;;8327908;28;20430;-84
2023/05/11 16:46:42;;;;;;;2.33;0.75;;;20.60;52.50;;;;;;8326776;28;20137;-84
2023/05/11 16:50:43;;;;;;;0.80;0.80;;;20.60;52.50;;;;;;8348091;28;20517;-83
2023/05/11 16:54:44;;;;;;;0.98;0.70;;;20.60;52.50;;;;;;8323546;28;20053;-84
2023/05/11 16:58:45;;;;;;;0.70;0.70;;;20.60;52.60;;;;;;8294355;28;20090;-83
2023/05/11 17:02:46;;;;;;;1.85;1.15;;;20.60;52.60;;;;;;8347323;28;20056;-83
2023/05/11 17:06:46;;;;;;;1.33;0.90;;;20.60;52.60;;;;;;8327232;28;20037;-84
2023/05/11 17:10:47;;;;;;;1.15;0.82;;;20.60;52.70;;;;;;8309955;28;20052;-84
2023/05/11 17:14:48;;;;;;;1.10;0.70;;;20.60;52.70;;;;;;8311099;28;20041;-78
2023/05/11 17:18:48;;;;;;;1.05;0.80;;;20.60;52.80;;;;;;8343020;28;20268;-78
2023/05/11 17:22:49;;;;;;;10.65;2.55;;;20.60;52.80;;;;;;8310290;28;20037;-75
2023/05/11 17:26:50;;;;;;;3.03;1.33;;;20.60;54.20;;;;;;8361857;28;20037;-77
2023/05/11 17:30:51;;;;;;;3.17;1.40;;;20.60;55.10;;;;;;8326673;28;20065;-77
2023/05/11 17:34:52;;;;;;;4.10;1.10;;;20.60;56.00;;;;;;8342659;28;20029;-76
2023/05/11 17:38:52;;;;;;;2.70;1.08;;;20.60;59.00;;;;;;8342699;28;20036;-77
2023/05/11 17:42:53;;;;;;;1.38;1.17;;;20.60;55.90;;;;;;8341947;28;20037;-77
2023/05/11 17:46:54;;;;;;;2.47;1.30;;;20.60;55.10;;;;;;8325923;28;20037;-78
2023/05/11 17:50:56;;;;;;;2.30;0.85;;;20.60;54.70;;;;;;8302987;28;20058;-78
2023/05/11 17:54:57;;;;;;;2.65;1.20;;;20.60;54.60;;;;;;8287045;28;20183;-78
2023/05/11 17:58:58;;;;;;;1.88;1.10;;;20.60;54.50;;;;;;8292150;28;20034;-77
2023/05/11 18:02:58;;;;;;;2.53;1.30;;;20.60;54.50;;;;;;8347062;28;20064;-76
2023/05/11 18:06:59;;;;;;;2.63;1.27;;;20.60;54.50;;;;;;8337591;28;20458;-77
2023/05/11 18:11:00;;;;;;;5.15;1.40;;;20.50;54.50;;;;;;8324859;28;20057;-77
2023/05/11 18:15:00;;;;;;;2.30;1.30;;;20.50;54.40;;;;;;8298024;28;20177;-76
2023/05/11 18:19:01;;;;;;;4.13;1.35;;;20.50;54.40;;;;;;8276252;28;20032;-77
2023/05/11 18:23:02;;;;;;;3.45;1.55;;;20.50;54.50;;;;;;8303502;28;20029;-77
2023/05/11 18:27:03;;;;;;;5.68;1.85;;;20.50;54.70;;;;;;8326508;28;20084;-77
2023/05/11 18:31:03;;;;;;;11.43;2.15;;;20.50;54.60;;;;;;8275373;28;20388;-78
2023/05/11 18:35:04;;;;;;;11.85;3.08;;;20.50;54.40;;;;;;8325065;28;20038;-78
2023/05/11 18:39:05;;;;;;;10.25;4.10;;;20.60;54.30;;;;;;8308422;28;20457;-78
2023/05/11 18:43:06;;;;;;;8.27;3.25;;;20.60;54.20;;;;;;8324930;28;20388;-78
2023/05/11 18:47:07;;;;;;;;;;;20.60;54.30;;;;;;8325817;28;20140;-78
2023/05/11 18:51:09;;;;;;;8.00;3.43;;;20.60;54.10;;;;;;8348665;28;19920;-78
2023/05/11 18:55:10;;;;;;;10.93;3.70;;;20.60;54.20;;;;;;8325107;28;20037;-78
2023/05/11 18:59:11;;;;;;;8.95;3.58;;;20.60;54.20;;;;;;8340910;28;20060;-78
2023/05/11 19:03:13;;;;;;;13.75;5.22;;;20.60;54.20;;;;;;8364120;28;20505;-78
2023/05/11 19:07:14;;;;;;;15.85;5.22;;;20.60;54.20;;;;;;8356570;28;20028;-79
2023/05/11 19:11:15;;;;;;;25.15;7.07;;;20.60;54.20;;;;;;8329443;28;20037;-79
2023/05/11 19:15:15;;;;;;;20.83;7.63;;;20.60;54.20;;;;;;8330438;28;20509;-78
2023/05/11 19:19:16;;;;;;;21.27;7.72;;;20.60;54.30;;;;;;8330198;28;20379;-79
2023/05/11 19:23:17;;;;;;;18.35;8.13;;;20.60;54.40;;;;;;8346836;28;20037;-78
2023/05/11 19:27:17;;;;;;;16.90;7.97;;;20.60;54.50;;;;;;8364195;28;20061;-78
2023/05/11 19:31:18;;;;;;;19.88;7.07;;;20.60;54.50;;;;;;8329849;28;20618;-78
2023/05/11 19:35:19;;;;;;;23.40;8.43;;;20.50;54.50;;;;;;8346087;28;20037;-78
2023/05/11 19:39:20;;;;;;;22.10;7.75;;;20.60;54.50;;;;;;8346193;28;20047;-78
2023/05/11 19:43:22;;;;;;;21.88;8.10;;;20.60;54.50;;;;;;8345753;28;20082;-78
2023/05/11 19:47:23;;;;;;;22.60;8.18;;;20.50;54.40;;;;;;8313203;28;20128;-78
2023/05/11 19:51:24;;;;;;;22.65;7.82;;;20.50;54.50;;;;;;8329132;28;20503;-78
2023/05/11 19:55:24;;;;;;;17.77;7.38;;;20.50;54.50;;;;;;8341999;28;20037;-78
2023/05/11 19:59:31;;;;;;;18.35;7.63;;;20.50;54.50;;;;;;8362328;28;20041;-78
2023/05/11 20:03:32;;;;;;;21.73;7.78;;;20.50;54.60;;;;;;8323712;28;20067;-77
2023/05/11 20:07:32;;;;;;;19.60;6.68;;;20.50;54.60;;;;;;8312513;28;20029;-78
2023/05/11 20:11:33;;;;;;;20.00;8.32;;;20.50;54.60;;;;;;8311690;28;20321;-78
2023/05/11 20:15:34;;;;;;;16.35;6.45;;;20.50;54.60;;;;;;8311881;28;20035;-78
2023/05/11 20:19:35;;;;;;;18.13;7.63;;;20.50;54.70;;;;;;8295387;28;20053;-77
2023/05/11 20:23:36;;;;;;;19.25;7.50;;;20.50;54.70;;;;;;8312412;28;20030;-77
2023/05/11 20:27:36;;;;;;;16.65;7.63;;;20.50;54.70;;;;;;8312033;28;20029;-78
2023/05/11 20:31:37;;;;;;;16.75;6.88;;;20.50;54.80;;;;;;8328231;28;20037;-78
2023/05/11 20:35:38;;;;;;;20.23;7.45;;;20.50;54.80;;;;;;8328086;28;20029;-77
2023/05/11 20:39:39;;;;;;;13.88;6.75;;;20.50;54.90;;;;;;8327851;28;20483;-77
2023/05/11 20:43:39;;;;;;;15.02;6.15;;;20.50;54.90;;;;;;8327865;28;20022;-78
2023/05/11 20:47:40;;;;;;;15.40;7.00;;;20.50;54.90;;;;;;8327667;28;20037;-77
2023/05/11 20:51:41;;;;;;;16.23;6.60;;;20.50;54.90;;;;;;8311376;28;20166;-77
2023/05/11 20:55:42;;;;;;;15.30;6.78;;;20.50;54.90;;;;;;8295434;28;20041;-77
2023/05/11 20:59:42;;;;;;;18.10;6.68;;;20.50;54.90;;;;;;8262583;28;20065;-78
2023/05/11 21:03:43;;;;;;;15.95;6.32;;;20.50;55.00;;;;;;8297401;28;20061;-77